Time;durP1;ratioP1;P1;durP2;ratioP2;P2;SDS_P1;SDS_P2;PMS_P1;PMS_P2;Temp;Humidity;BMP_temperature;BMP_pressure;BME280_temperature;BME280_humidity;BME280_pressure;Samples;Min_cycle;Max_cycle;Signal;HPM_P1;HPM_P2
2022/12/12 00:01:13;;;;;;;27.67;14.13;;;;;;;1.66;100.00;95531.84;4949777;28;20115;-44
2022/12/12 00:03:41;;;;;;;16.90;11.45;;;;;;;1.51;100.00;95527.75;4953230;28;20083;-42
2022/12/12 00:06:10;;;;;;;23.13;13.43;;;;;;;1.30;100.00;95523.16;4950501;28;20098;-44
2022/12/12 00:08:40;;;;;;;21.40;13.73;;;;;;;1.39;100.00;95538.09;4951336;28;20079;-43
2022/12/12 00:11:08;;;;;;;23.77;13.50;;;;;;;1.36;100.00;95525.31;4948803;28;20538;-47
2022/12/12 00:13:37;;;;;;;22.50;13.85;;;;;;;1.53;100.00;95528.47;4951003;28;20451;-42
2022/12/12 00:16:06;;;;;;;19.30;11.90;;;;;;;1.35;100.00;95531.47;4947553;28;20105;-45
2022/12/12 00:18:35;;;;;;;20.70;13.15;;;;;;;1.21;100.00;95539.44;4949608;28;20086;-45
2022/12/12 00:21:05;;;;;;;15.63;10.73;;;;;;;1.09;100.00;95542.91;4959841;28;20075;-46
2022/12/12 00:23:34;;;;;;;14.05;10.15;;;;;;;1.02;100.00;95536.50;4942974;28;20075;-46
2022/12/12 00:26:07;;;;;;;24.63;15.35;;;;;;;1.37;100.00;95536.53;4952998;29;20070;-45
2022/12/12 00:28:35;;;;;;;19.88;12.70;;;;;;;1.38;100.00;95530.44;4954045;28;20083;-46
2022/12/12 00:31:03;;;;;;;21.15;12.63;;;;;;;1.36;100.00;95543.50;4941682;29;20077;-44
2022/12/12 00:33:32;;;;;;;22.90;12.82;;;;;;;1.24;100.00;95543.56;4953253;28;20071;-44
2022/12/12 00:36:00;;;;;;;20.10;12.50;;;;;;;1.15;100.00;95548.47;4959370;28;20082;-47
2022/12/12 00:38:29;;;;;;;21.70;12.20;;;;;;;1.37;100.00;95546.94;4955923;28;20533;-52
2022/12/12 00:40:59;;;;;;;20.92;12.25;;;;;;;1.44;100.00;95545.53;4955743;28;20089;-45
2022/12/12 00:43:29;;;;;;;;;;;;;;;1.48;100.00;95543.56;4960941;28;20093;-42
2022/12/12 00:45:58;;;;;;;17.92;11.10;;;;;;;1.30;100.00;95546.53;4942387;29;19968;-43
2022/12/12 00:48:27;;;;;;;21.63;12.52;;;;;;;1.26;100.00;95552.06;4953507;28;20553;-48
2022/12/12 00:50:56;;;;;;;23.23;13.07;;;;;;;1.36;100.00;95542.69;4953129;28;20141;-47
2022/12/12 00:53:24;;;;;;;21.55;14.07;;;;;;;1.45;100.00;95554.19;4957796;28;20081;-45
2022/12/12 00:55:56;;;;;;;25.30;13.23;;;;;;;1.16;100.00;95547.53;4948649;28;20082;-45
2022/12/12 00:58:25;;;;;;;23.35;13.82;;;;;;;1.39;100.00;95558.06;4946168;28;20078;-45
2022/12/12 01:00:54;;;;;;;21.25;12.63;;;;;;;1.07;100.00;95547.38;4952581;28;20104;-43
2022/12/12 01:03:22;;;;;;;24.50;14.03;;;;;;;1.23;100.00;95553.13;4948100;28;20070;-49
2022/12/12 01:05:51;;;;;;;22.98;13.70;;;;;;;1.08;100.00;95549.03;4951551;28;20558;-44
2022/12/12 01:08:19;;;;;;;20.20;12.68;;;;;;;1.09;100.00;95550.69;4948782;28;20094;-48
2022/12/12 01:10:48;;;;;;;25.70;14.90;;;;;;;1.24;100.00;95551.34;4949669;28;20063;-44
2022/12/12 01:13:16;;;;;;;21.30;13.13;;;;;;;1.35;100.00;95559.22;4951904;28;20474;-47
2022/12/12 01:15:44;;;;;;;22.88;13.48;;;;;;;1.20;100.00;95561.13;4948627;28;20078;-45
2022/12/12 01:18:14;;;;;;;22.58;13.65;;;;;;;1.25;100.00;95560.81;4951029;28;20082;-49
2022/12/12 01:20:43;;;;;;;25.48;15.48;;;;;;;1.40;100.00;95567.50;4946273;28;20158;-48
2022/12/12 01:23:11;;;;;;;21.48;12.15;;;;;;;1.11;100.00;95565.22;4946383;28;20450;-50
2022/12/12 01:25:40;;;;;;;23.95;14.65;;;;;;;1.40;100.00;95557.94;4948953;28;20136;-49
2022/12/12 01:28:09;;;;;;;22.67;12.98;;;;;;;1.35;100.00;95559.22;4953035;28;20062;-45
2022/12/12 01:30:37;;;;;;;25.60;14.07;;;;;;;1.37;100.00;95563.34;4953280;28;20090;-51
2022/12/12 01:33:06;;;;;;;23.60;14.68;;;;;;;1.56;100.00;95556.84;4947670;28;20070;-47
2022/12/12 01:35:36;;;;;;;24.15;14.98;;;;;;;1.66;100.00;95563.84;4947616;28;20073;-45
2022/12/12 01:38:04;;;;;;;26.97;15.47;;;;;;;1.71;100.00;95562.66;4947354;28;20074;-45
2022/12/12 01:40:32;;;;;;;24.00;14.43;;;;;;;1.72;100.00;95561.72;4950188;28;20882;-47
2022/12/12 01:43:00;;;;;;;23.98;14.70;;;;;;;1.48;100.00;95564.34;4951577;28;20085;-53
2022/12/12 01:45:56;;;;;;;25.37;15.87;;;;;;;1.28;100.00;95556.22;4945458;28;20056;-45
2022/12/12 01:48:27;;;;;;;25.08;14.88;;;;;;;1.65;100.00;95558.75;4946612;28;20070;-48
2022/12/12 01:50:59;;;;;;;26.00;14.57;;;;;;;1.48;100.00;95551.34;4947163;28;20070;-45
2022/12/12 01:53:30;;;;;;;24.17;15.50;;;;;;;1.78;100.00;95553.47;4947959;28;20084;-48
2022/12/12 01:55:58;;;;;;;24.23;15.35;;;;;;;1.41;100.00;95564.81;4949740;28;20074;-44
2022/12/12 01:58:27;;;;;;;21.95;12.63;;;;;;;1.28;100.00;95555.41;4952833;28;20534;-45
2022/12/12 02:00:55;;;;;;;24.40;14.13;;;;;;;1.54;100.00;95569.09;4949637;28;20090;-47
2022/12/12 02:03:24;;;;;;;23.13;14.27;;;;;;;1.59;100.00;95567.81;4951230;28;20174;-50
2022/12/12 02:05:54;;;;;;;24.10;14.60;;;;;;;1.53;100.00;95573.47;4950772;28;20127;-45
2022/12/12 02:08:25;;;;;;;24.27;15.02;;;;;;;1.69;100.00;95567.13;4947921;28;20460;-46
2022/12/12 02:10:54;;;;;;;23.02;15.20;;;;;;;1.67;100.00;95573.28;4948608;28;20708;-45
2022/12/12 02:13:25;;;;;;;22.20;13.13;;;;;;;1.40;100.00;95576.09;4949616;28;20594;-45
2022/12/12 02:15:59;;;;;;;23.95;14.93;;;;;;;1.78;100.00;95582.88;4948848;28;20086;-50
2022/12/12 02:18:32;;;;;;;23.10;14.45;;;;;;;1.58;100.00;95580.91;4947531;28;20098;-47
2022/12/12 02:21:11;;;;;;;26.02;14.57;;;;;;;1.42;100.00;95589.00;4951596;28;20073;-50
2022/12/12 02:23:57;;;;;;;22.92;14.98;;;;;;;1.59;100.00;95582.59;4944574;28;20129;-47
2022/12/12 02:26:52;;;;;;;22.70;13.90;;;;;;;1.32;100.00;95583.63;4949088;28;20077;-49
2022/12/12 02:29:39;;;;;;;25.88;14.23;;;;;;;1.28;100.00;95589.16;4956381;28;20083;-45
2022/12/12 02:32:16;;;;;;;25.38;14.60;;;;;;;1.39;100.00;95581.44;4948905;28;20063;-53
2022/12/12 02:34:49;;;;;;;20.42;12.65;;;;;;;1.40;100.00;95585.66;4947371;28;20526;-52
2022/12/12 02:37:23;;;;;;;24.90;14.70;;;;;;;1.47;100.00;95583.47;4945233;28;20526;-47
2022/12/12 02:39:58;;;;;;;23.98;14.07;;;;;;;1.32;100.00;95588.00;4949134;28;20470;-49
2022/12/12 02:42:29;;;;;;;22.20;13.38;;;;;;;1.16;100.00;95578.69;4947026;28;20074;-46
2022/12/12 02:45:00;;;;;;;22.88;14.15;;;;;;;1.57;100.00;95587.88;4950528;28;20122;-45
2022/12/12 02:47:30;;;;;;;30.48;14.98;;;;;;;1.29;100.00;95590.81;4945285;28;20075;-44
2022/12/12 02:50:03;;;;;;;20.40;13.02;;;;;;;1.36;100.00;95589.44;4955361;28;20519;-47
2022/12/12 02:52:32;;;;;;;25.10;14.95;;;;;;;1.42;100.00;95589.00;4962441;28;20094;-44
2022/12/12 02:55:00;;;;;;;23.08;14.25;;;;;;;1.53;100.00;95589.06;4951415;28;20081;-48
2022/12/12 02:57:29;;;;;;;22.20;13.65;;;;;;;1.59;100.00;95587.78;4943142;28;20082;-52
2022/12/12 03:00:01;;;;;;;21.42;13.98;;;;;;;1.63;100.00;95579.66;4947743;28;20519;-51
2022/12/12 03:02:48;;;;;;;25.17;14.63;;;;;;;1.45;100.00;95587.97;4947527;28;20485;-51
2022/12/12 03:08:27;;;;;;;22.45;13.88;;;;;;;1.16;100.00;95590.84;4947523;28;20089;-47
2022/12/12 03:10:58;;;;;;;23.77;14.73;;;;;;;1.30;100.00;95597.66;4946772;28;20094;-48
2022/12/12 03:13:29;;;;;;;;;;;;;;;1.15;100.00;95599.59;4945368;28;20091;-51
2022/12/12 03:16:08;;;;;;;21.85;13.57;;;;;;;1.42;100.00;95594.19;4952589;28;19961;-49
2022/12/12 03:18:42;;;;;;;23.88;13.68;;;;;;;1.32;100.00;95593.19;4945805;28;20475;-45
2022/12/12 03:21:16;;;;;;;21.42;13.85;;;;;;;1.34;100.00;95596.50;4946437;28;20067;-49
2022/12/12 03:23:47;;;;;;;26.40;14.55;;;;;;;1.46;100.00;95595.63;4948668;28;20075;-46
2022/12/12 03:26:18;;;;;;;25.58;14.85;;;;;;;1.27;100.00;95590.09;4946266;28;20522;-47
2022/12/12 03:28:50;;;;;;;21.58;13.43;;;;;;;1.13;100.00;95597.06;4944719;28;20475;-50
2022/12/12 03:31:22;;;;;;;17.15;11.93;;;;;;;1.10;100.00;95593.88;4951204;28;20440;-50
2022/12/12 03:33:56;;;;;;;28.25;14.82;;;;;;;1.25;100.00;95594.56;4952340;28;20090;-45
2022/12/12 03:36:27;;;;;;;24.38;15.07;;;;;;;1.59;100.00;95595.59;4949001;29;20451;-47
2022/12/12 03:39:00;;;;;;;22.60;13.45;;;;;;;1.38;100.00;95596.19;4949578;28;20091;-50
2022/12/12 03:41:34;;;;;;;24.85;15.02;;;;;;;1.46;100.00;95600.81;4942112;28;20089;-45
2022/12/12 03:44:05;;;;;;;21.73;13.68;;;;;;;1.47;100.00;95597.28;4947065;28;20094;-50
2022/12/12 03:46:38;;;;;;;22.50;14.23;;;;;;;1.46;100.00;95594.81;4944889;28;20075;-46
2022/12/12 03:49:12;;;;;;;22.50;13.73;;;;;;;1.23;100.00;95604.22;4948918;28;20085;-47
2022/12/12 03:51:44;;;;;;;24.13;13.60;;;;;;;1.30;100.00;95601.09;4944745;28;20117;-50
2022/12/12 03:54:18;;;;;;;25.23;14.95;;;;;;;1.14;100.00;95603.13;4943332;28;20083;-48
2022/12/12 03:56:50;;;;;;;22.65;14.07;;;;;;;1.14;100.00;95606.56;4945639;28;20535;-46
2022/12/12 03:59:21;;;;;;;27.08;15.63;;;;;;;1.40;100.00;95602.09;4942956;28;20060;-52
2022/12/12 04:01:58;;;;;;;22.50;13.77;;;;;;;1.10;100.00;95604.25;4944556;28;20093;-50
2022/12/12 04:04:32;;;;;;;23.38;14.82;;;;;;;1.35;100.00;95603.38;4946634;28;20087;-45
2022/12/12 04:07:04;;;;;;;26.77;15.25;;;;;;;1.37;100.00;95606.66;4947859;28;20455;-50
2022/12/12 04:15:36;;;;;;;24.02;13.90;;;;;;;1.09;100.00;95616.41;4948478;28;20087;-45
2022/12/12 04:18:13;;;;;;;28.10;15.45;;;;;;;1.05;100.00;95606.38;4950409;28;20062;-46
2022/12/12 04:23:37;;;;;;;26.42;14.93;;;;;;;0.83;100.00;95614.81;4944043;28;20456;-47
2022/12/12 04:29:04;;;;;;;21.10;13.98;;;;;;;0.89;100.00;95617.78;4946213;28;20086;-48
2022/12/12 04:31:34;;;;;;;24.90;14.13;;;;;;;0.92;100.00;95616.75;4951785;28;20172;-46
2022/12/12 04:34:07;;;;;;;23.83;15.68;;;;;;;0.76;100.00;95614.41;4956980;28;20077;-47
2022/12/12 04:36:37;;;;;;;25.15;15.57;;;;;;;1.20;100.00;95615.66;4946026;28;20075;-46
2022/12/12 04:39:07;;;;;;;27.75;15.63;;;;;;;1.29;100.00;95615.00;4948773;28;20086;-46
2022/12/12 04:41:36;;;;;;;27.85;16.38;;;;;;;1.43;100.00;95611.44;4946718;28;20079;-48
2022/12/12 04:44:07;;;;;;;24.02;15.43;;;;;;;1.45;100.00;95611.34;4946506;28;20078;-51
2022/12/12 04:46:37;;;;;;;26.20;16.17;;;;;;;1.34;100.00;95618.13;4943818;29;20507;-46
2022/12/12 04:49:08;;;;;;;28.45;16.13;;;;;;;1.63;100.00;95615.19;4950787;28;20491;-46
2022/12/12 04:51:41;;;;;;;27.20;15.57;;;;;;;1.49;100.00;95618.78;4952700;28;20079;-46
2022/12/12 04:54:12;;;;;;;26.08;16.08;;;;;;;1.64;100.00;95615.06;4947245;28;20094;-45
2022/12/12 04:56:43;;;;;;;30.40;16.20;;;;;;;1.65;100.00;95619.34;4951326;28;20070;-46
2022/12/12 04:59:11;;;;;;;24.23;15.10;;;;;;;1.54;100.00;95621.88;4945824;28;20683;-46
2022/12/12 05:01:45;;;;;;;27.23;15.02;;;;;;;1.86;100.00;95613.53;4950309;28;20063;-45
2022/12/12 05:04:24;;;;;;;25.67;15.88;;;;;;;1.69;100.00;95619.09;4948417;28;20515;-51
2022/12/12 05:06:58;;;;;;;25.98;15.48;;;;;;;1.61;100.00;95625.69;4950953;28;20074;-48
2022/12/12 05:09:26;;;;;;;24.95;15.13;;;;;;;1.45;100.00;95621.72;4951679;28;20097;-50
2022/12/12 05:11:54;;;;;;;26.00;15.32;;;;;;;1.23;100.00;95635.38;4954957;28;20079;-46
2022/12/12 05:14:23;;;;;;;28.20;15.40;;;;;;;1.25;100.00;95630.94;4954329;28;20086;-46
2022/12/12 05:16:54;;;;;;;28.00;16.30;;;;;;;1.40;100.00;95633.25;4954282;28;20085;-50
2022/12/12 05:19:22;;;;;;;27.27;15.23;;;;;;;1.24;100.00;95629.25;4947259;28;20094;-44
2022/12/12 05:21:50;;;;;;;18.45;12.25;;;;;;;1.08;100.00;95635.53;4952533;28;20075;-44
2022/12/12 05:24:20;;;;;;;23.08;13.55;;;;;;;1.02;100.00;95638.53;4948474;28;20456;-47
2022/12/12 05:26:48;;;;;;;26.90;15.47;;;;;;;1.09;100.00;95633.75;4945391;28;20087;-45
2022/12/12 05:29:17;;;;;;;22.27;14.70;;;;;;;1.14;100.00;95642.06;4942558;28;20664;-44
2022/12/12 05:31:45;;;;;;;26.80;14.57;;;;;;;1.19;100.00;95640.78;4953103;29;20090;-48
2022/12/12 05:34:13;;;;;;;26.40;16.08;;;;;;;0.91;100.00;95641.06;4968050;28;20047;-48
2022/12/12 05:36:42;;;;;;;21.70;13.95;;;;;;;0.98;100.00;95641.47;4952657;28;20067;-47
2022/12/12 05:39:10;;;;;;;27.90;15.20;;;;;;;1.05;100.00;95638.34;4950629;28;20066;-44
2022/12/12 05:41:40;;;;;;;25.10;14.35;;;;;;;0.83;100.00;95651.97;4940821;29;20078;-47
2022/12/12 05:44:08;;;;;;;28.15;16.33;;;;;;;1.14;100.00;95652.47;4939712;28;20086;-49
2022/12/12 05:46:37;;;;;;;26.58;16.25;;;;;;;1.37;100.00;95653.41;4967283;28;20079;-46
2022/12/12 05:49:05;;;;;;;26.63;16.23;;;;;;;1.66;100.00;95646.16;4949981;28;20093;-47
2022/12/12 05:51:33;;;;;;;25.75;15.32;;;;;;;1.10;100.00;95654.44;4940050;29;20083;-46
2022/12/12 05:54:01;;;;;;;27.00;16.63;;;;;;;1.47;100.00;95659.63;4949139;28;20528;-45
2022/12/12 05:56:30;;;;;;;29.38;16.45;;;;;;;1.30;100.00;95658.22;4952758;28;20074;-47
2022/12/12 05:59:00;;;;;;;24.75;15.80;;;;;;;1.07;100.00;95662.44;4947086;28;20082;-44
2022/12/12 06:01:28;;;;;;;23.70;15.47;;;;;;;1.08;100.00;95656.31;4953000;29;20074;-44
2022/12/12 06:03:56;;;;;;;25.85;15.98;;;;;;;0.87;100.00;95660.38;4953762;28;20078;-44
2022/12/12 06:06:25;;;;;;;23.13;14.52;;;;;;;1.06;100.00;95660.75;4952449;28;20082;-45
2022/12/12 06:08:53;;;;;;;26.25;15.98;;;;;;;1.03;100.00;95663.56;4955926;28;20463;-43
2022/12/12 06:11:21;;;;;;;27.52;17.15;;;;;;;1.28;100.00;95662.72;4955487;28;20091;-51
2022/12/12 06:13:49;;;;;;;27.15;15.52;;;;;;;1.42;100.00;95672.94;4946621;28;20078;-44
2022/12/12 06:16:19;;;;;;;27.48;15.90;;;;;;;1.44;100.00;95667.63;4946190;28;20079;-45
2022/12/12 06:18:51;;;;;;;25.00;15.48;;;;;;;0.87;100.00;95665.56;4950388;28;20082;-44
2022/12/12 06:21:20;;;;;;;24.00;14.75;;;;;;;0.98;100.00;95673.44;4953548;28;20534;-48
2022/12/12 06:23:49;;;;;;;24.98;15.05;;;;;;;1.52;100.00;95669.72;4959358;28;20520;-43
2022/12/12 06:26:19;;;;;;;30.20;15.90;;;;;;;1.06;100.00;95668.53;4948265;29;20079;-45
2022/12/12 06:28:48;;;;;;;23.30;14.95;;;;;;;1.11;100.00;95663.88;4945807;28;20082;-44
2022/12/12 06:31:17;;;;;;;26.27;15.90;;;;;;;1.15;100.00;95669.69;4951748;28;20085;-49
2022/12/12 06:33:47;;;;;;;24.70;14.27;;;;;;;1.11;100.00;95679.47;4947304;28;20095;-47
2022/12/12 06:36:22;;;;;;;30.23;17.65;;;;;;;1.29;100.00;95669.56;4945497;28;20095;-44
2022/12/12 06:38:51;;;;;;;25.55;15.88;;;;;;;1.17;100.00;95673.84;4952282;28;20081;-48
2022/12/12 06:41:21;;;;;;;25.80;15.07;;;;;;;1.48;100.00;95669.09;4951804;28;20070;-47
2022/12/12 06:43:49;;;;;;;20.52;12.10;;;;;;;0.61;100.00;95677.72;4939934;28;20087;-46
2022/12/12 06:46:20;;;;;;;19.23;12.48;;;;;;;0.55;100.00;95683.31;4952143;28;20486;-49
2022/12/12 06:48:50;;;;;;;21.95;13.73;;;;;;;0.31;100.00;95683.16;4938825;28;20090;-44
2022/12/12 06:51:21;;;;;;;22.15;14.63;;;;;;;0.73;100.00;95686.44;4947153;29;20078;-45
2022/12/12 06:53:50;;;;;;;23.77;14.80;;;;;;;0.85;100.00;95683.00;4951886;28;20428;-45
2022/12/12 06:56:21;;;;;;;27.92;14.10;;;;;;;0.25;100.00;95694.78;4945470;28;20115;-43
2022/12/12 06:58:49;;;;;;;20.73;13.05;;;;;;;0.42;100.00;95691.91;4951418;28;20075;-44
2022/12/12 07:01:20;;;;;;;22.42;13.60;;;;;;;0.24;100.00;95695.69;4947346;28;20075;-43
2022/12/12 07:03:51;;;;;;;22.38;14.70;;;;;;;0.33;100.00;95700.28;4943300;28;20082;-49
2022/12/12 07:06:19;;;;;;;;;;;;;;;0.18;100.00;95709.09;4949301;29;20067;-45
2022/12/12 07:08:48;;;;;;;21.27;12.85;;;;;;;0.34;100.00;95706.31;4945265;28;19961;-44
2022/12/12 07:11:18;;;;;;;21.48;12.82;;;;;;;0.10;100.00;95712.16;4948931;28;20074;-45
2022/12/12 07:13:46;;;;;;;20.90;12.68;;;;;;;0.23;100.00;95704.41;4945546;29;20075;-46
2022/12/12 07:16:15;;;;;;;25.88;13.82;;;;;;;0.13;100.00;95711.97;4944122;28;20098;-48
2022/12/12 07:18:43;;;;;;;23.25;13.55;;;;;;;0.43;100.00;95701.34;4951408;28;20531;-44
2022/12/12 07:21:15;;;;;;;21.88;12.50;;;;;;;0.02;100.00;95709.25;4941255;28;20094;-45
2022/12/12 07:23:44;;;;;;;19.45;10.98;;;;;;;-0.19;100.00;95713.22;4943193;29;20087;-43
2022/12/12 07:26:15;;;;;;;19.55;12.25;;;;;;;-0.41;100.00;95716.31;4957355;28;20086;-43
2022/12/12 07:28:43;;;;;;;21.17;11.52;;;;;;;-0.22;100.00;95716.00;4946628;28;20101;-49
2022/12/12 07:31:13;;;;;;;23.40;13.20;;;;;;;-0.02;100.00;95716.38;4944902;28;20094;-45
2022/12/12 07:33:42;;;;;;;20.73;12.68;;;;;;;0.04;100.00;95709.97;4944985;29;20074;-46
2022/12/12 07:36:14;;;;;;;21.35;13.43;;;;;;;-0.08;100.00;95721.13;4951341;28;20081;-47
2022/12/12 07:38:43;;;;;;;21.77;11.68;;;;;;;-0.30;100.00;95717.31;4950349;28;20093;-44
2022/12/12 07:41:13;;;;;;;20.50;11.88;;;;;;;-0.28;100.00;95722.38;4945081;28;20473;-49
2022/12/12 07:43:43;;;;;;;18.77;11.88;;;;;;;-0.61;100.00;95720.97;4945738;28;20078;-52
2022/12/12 07:46:14;;;;;;;15.27;10.65;;;;;;;-0.45;100.00;95725.19;4949673;28;20537;-48
2022/12/12 07:48:43;;;;;;;19.20;11.48;;;;;;;-0.45;100.00;95730.38;4946931;29;20075;-44
2022/12/12 07:51:14;;;;;;;15.73;9.70;;;;;;;-0.72;100.00;95739.78;4941052;28;20090;-43
2022/12/12 07:53:42;;;;;;;19.95;12.23;;;;;;;-0.21;100.00;95743.56;4932016;29;20060;-46
2022/12/12 07:56:12;;;;;;;18.25;11.68;;;;;;;-0.05;100.00;95739.91;4941435;28;20459;-47
2022/12/12 07:58:41;;;;;;;21.00;12.30;;;;;;;0.14;100.00;95743.91;4951126;29;20063;-45
2022/12/12 08:01:11;;;;;;;18.25;10.90;;;;;;;0.44;100.00;95739.31;4951108;28;20086;-48
2022/12/12 08:03:42;;;;;;;20.42;11.65;;;;;;;0.70;100.00;95737.59;4944892;29;20067;-41
2022/12/12 08:06:15;;;;;;;16.42;10.65;;;;;;;0.76;100.00;95744.16;4951188;28;20534;-52
2022/12/12 08:08:43;;;;;;;20.52;12.60;;;;;;;1.18;100.00;95739.59;4944801;28;20079;-43
2022/12/12 08:11:14;;;;;;;21.30;13.35;;;;;;;1.05;100.00;95749.97;4949945;28;20083;-45
2022/12/12 08:13:43;;;;;;;19.38;11.88;;;;;;;1.05;100.00;95752.56;4934259;29;20076;-46
2022/12/12 08:16:14;;;;;;;20.40;12.45;;;;;;;1.27;100.00;95748.50;4945260;28;20121;-45
2022/12/12 08:18:42;;;;;;;21.50;12.75;;;;;;;1.40;100.00;95750.16;4951207;29;20083;-44
2022/12/12 08:21:13;;;;;;;17.38;11.25;;;;;;;1.07;100.00;95755.91;4958371;28;20074;-42
2022/12/12 08:23:43;;;;;;;13.18;9.27;;;;;;;0.90;100.00;95749.25;4942729;28;20082;-47
2022/12/12 08:26:15;;;;;;;13.30;9.02;;;;;;;1.14;100.00;95757.13;4949066;28;20179;-44
2022/12/12 08:28:47;;;;;;;14.27;10.18;;;;;;;1.45;100.00;95751.63;4945290;28;20083;-44
2022/12/12 08:31:16;;;;;;;13.18;9.30;;;;;;;1.30;100.00;95759.50;4946601;28;20090;-43
2022/12/12 08:33:45;;;;;;;16.63;9.70;;;;;;;1.65;100.00;95757.09;4944273;28;20073;-48
2022/12/12 08:36:17;;;;;;;14.32;9.07;;;;;;;1.52;100.00;95758.88;4944381;28;20071;-45
2022/12/12 08:38:45;;;;;;;19.33;11.55;;;;;;;1.63;100.00;95768.50;4955166;28;20075;-50
2022/12/12 08:41:14;;;;;;;18.85;11.25;;;;;;;1.84;100.00;95768.78;4951893;28;20085;-44
2022/12/12 08:43:43;;;;;;;17.25;10.48;;;;;;;1.86;100.00;95769.50;4958773;28;20077;-45
2022/12/12 08:46:12;;;;;;;21.15;12.40;;;;;;;1.86;100.00;95769.50;4953511;28;20102;-50
2022/12/12 08:48:45;;;;;;;17.40;11.38;;;;;;;2.21;100.00;95767.00;4948226;29;20083;-44
2022/12/12 08:51:15;;;;;;;18.63;12.73;;;;;;;2.24;100.00;95768.53;4949657;28;20078;-47
2022/12/12 08:53:44;;;;;;;18.10;12.27;;;;;;;2.47;100.00;95766.84;4953598;28;20079;-49
2022/12/12 08:56:13;;;;;;;19.77;12.60;;;;;;;2.21;100.00;95779.16;4954299;28;20081;-47
2022/12/12 08:58:41;;;;;;;18.75;12.23;;;;;;;2.26;100.00;95775.28;4947607;29;20094;-46
2022/12/12 09:01:10;;;;;;;18.52;12.27;;;;;;;2.29;100.00;95780.25;4969041;28;20125;-47
2022/12/12 09:03:39;;;;;;;21.13;13.18;;;;;;;2.47;100.00;95785.88;4951862;29;20097;-47
2022/12/12 09:06:09;;;;;;;19.77;12.95;;;;;;;2.84;100.00;95786.63;4940233;28;21107;-41
2022/12/12 09:08:38;;;;;;;23.00;13.25;;;;;;;2.33;100.00;95788.66;4952424;28;20519;-42
2022/12/12 09:11:07;;;;;;;20.08;13.23;;;;;;;3.24;100.00;95782.81;4951763;28;20523;-43
2022/12/12 09:13:36;;;;;;;21.20;12.85;;;;;;;2.55;100.00;95794.00;4947498;28;20152;-44
2022/12/12 09:16:05;;;;;;;22.85;13.38;;;;;;;2.83;100.00;95787.56;4952617;28;20078;-42
2022/12/12 09:18:34;;;;;;;22.90;14.57;;;;;;;3.06;100.00;95798.03;4947162;28;20175;-46
2022/12/12 09:21:03;;;;;;;20.92;13.88;;;;;;;2.63;100.00;95800.41;4952937;28;20067;-46
2022/12/12 09:23:31;;;;;;;18.05;12.00;;;;;;;2.83;100.00;95804.97;4949499;28;20091;-47
2022/12/12 09:26:05;;;;;;;21.13;12.95;;;;;;;2.90;100.00;95800.97;4948075;28;20500;-48
2022/12/12 09:28:34;;;;;;;19.90;13.02;;;;;;;2.95;100.00;95811.03;4952985;29;20098;-45
2022/12/12 09:31:04;;;;;;;19.10;12.15;;;;;;;2.61;100.00;95809.16;4957534;28;20062;-42
2022/12/12 09:33:33;;;;;;;18.25;11.60;;;;;;;2.67;100.00;95807.03;4947011;28;20083;-45
2022/12/12 09:36:02;;;;;;;21.73;13.32;;;;;;;3.09;100.00;95803.84;4958986;28;20078;-50
2022/12/12 09:38:31;;;;;;;20.35;12.95;;;;;;;2.76;100.00;95806.38;4950549;28;20109;-46
2022/12/12 09:41:01;;;;;;;19.92;12.15;;;;;;;2.65;100.00;95801.97;4946354;28;20529;-44
2022/12/12 09:43:33;;;;;;;22.02;13.40;;;;;;;2.45;100.00;95802.59;4940982;29;20067;-46
2022/12/12 09:46:02;;;;;;;20.63;13.00;;;;;;;2.78;100.00;95799.25;4961919;28;20074;-44
2022/12/12 09:48:40;;;;;;;23.38;13.43;;;;;;;2.80;100.00;95807.81;4946636;28;20087;-47
2022/12/12 09:51:09;;;;;;;19.17;12.32;;;;;;;2.72;100.00;95797.97;4945189;28;20079;-44
2022/12/12 09:53:38;;;;;;;20.48;12.75;;;;;;;2.84;100.00;95793.63;4951241;28;20079;-44
2022/12/12 09:56:10;;;;;;;20.33;12.75;;;;;;;2.86;100.00;95796.94;4948694;28;20090;-45
2022/12/12 09:58:44;;;;;;;23.70;13.50;;;;;;;2.61;100.00;95801.34;4946428;28;20383;-44
2022/12/12 10:01:20;;;;;;;;;;;;;;;2.69;100.00;95803.38;4953472;28;20089;-45
2022/12/12 10:03:56;;;;;;;21.70;12.10;;;;;;;2.71;100.00;95796.28;4952202;29;20373;-44
2022/12/12 10:06:28;;;;;;;21.25;13.52;;;;;;;2.62;100.00;95799.56;4939403;28;20067;-46
2022/12/12 10:09:22;;;;;;;20.67;13.93;;;;;;;3.06;100.00;95791.06;4947509;29;20090;-45
2022/12/12 10:11:53;;;;;;;17.48;11.57;;;;;;;2.88;100.00;95794.22;4949040;28;20067;-46
2022/12/12 10:14:27;;;;;;;18.08;11.38;;;;;;;2.85;100.00;95792.66;4946286;28;20086;-44
2022/12/12 10:16:56;;;;;;;21.55;12.90;;;;;;;2.88;100.00;95789.81;4949799;28;20085;-49
2022/12/12 10:19:29;;;;;;;20.27;13.30;;;;;;;2.89;100.00;95793.25;4946366;28;20087;-47
2022/12/12 10:22:06;;;;;;;19.98;13.60;;;;;;;2.94;100.00;95791.97;4952948;28;20494;-46
2022/12/12 10:24:39;;;;;;;22.00;12.25;;;;;;;2.67;100.00;95796.63;4953336;29;20067;-49
2022/12/12 10:27:09;;;;;;;22.13;13.50;;;;;;;3.54;100.00;95796.13;4951733;28;20083;-42
2022/12/12 10:29:40;;;;;;;22.50;13.13;;;;;;;3.42;100.00;95797.03;4949623;28;20077;-46
2022/12/12 10:32:14;;;;;;;20.98;11.88;;;;;;;2.93;100.00;95795.53;4948095;28;20479;-47
2022/12/12 10:34:54;;;;;;;22.17;12.82;;;;;;;3.06;100.00;95785.00;4952166;28;20085;-47
2022/12/12 10:37:35;;;;;;;19.52;13.73;;;;;;;3.50;100.00;95789.47;4948571;28;20085;-46
2022/12/12 10:40:16;;;;;;;21.30;12.85;;;;;;;3.49;93.20;95787.81;4940187;28;20460;-48
2022/12/12 10:42:49;;;;;;;19.02;12.77;;;;;;;3.43;93.12;95792.66;4948576;28;20088;-44
2022/12/12 10:45:31;;;;;;;17.33;12.30;;;;;;;2.81;95.75;95791.22;4951936;29;20075;-45
2022/12/12 10:47:59;;;;;;;21.27;12.65;;;;;;;3.72;91.17;95787.81;4952447;29;20086;-45
2022/12/12 10:50:32;;;;;;;20.13;11.88;;;;;;;3.19;93.52;95784.94;4945701;28;20090;-45
2022/12/12 10:53:01;;;;;;;18.73;12.13;;;;;;;3.14;92.29;95790.50;4939526;28;20117;-42
2022/12/12 10:55:37;;;;;;;20.70;11.68;;;;;;;2.67;90.49;95794.84;4945063;28;20095;-50
2022/12/12 10:58:06;;;;;;;17.77;11.63;;;;;;;2.78;94.02;95794.06;4945806;28;20095;-46
2022/12/12 11:00:38;;;;;;;20.77;12.38;;;;;;;2.87;97.16;95795.16;4951855;28;20082;-45
2022/12/12 11:03:21;;;;;;;21.08;12.68;;;;;;;3.22;94.78;95789.91;4952021;28;20097;-49
2022/12/12 11:05:49;;;;;;;19.52;12.05;;;;;;;3.24;91.80;95788.03;4946944;28;20101;-43
2022/12/12 11:08:20;;;;;;;19.65;11.90;;;;;;;3.09;90.64;95782.19;4943720;28;20087;-43
2022/12/12 11:11:04;;;;;;;18.17;12.10;;;;;;;3.49;90.03;95787.81;4947963;28;20090;-47
2022/12/12 11:13:39;;;;;;;22.50;13.60;;;;;;;3.67;90.30;95780.34;4951706;28;20087;-42
2022/12/12 11:16:14;;;;;;;23.15;13.40;;;;;;;3.96;85.15;95780.69;4945041;28;20079;-41
2022/12/12 11:18:57;;;;;;;21.20;12.60;;;;;;;4.21;81.40;95784.78;4951369;28;20074;-46
2022/12/12 11:21:25;;;;;;;19.17;12.80;;;;;;;3.99;80.71;95788.28;4945230;28;20078;-44
2022/12/12 11:23:55;;;;;;;18.70;11.75;;;;;;;3.71;79.40;95784.34;4949335;28;20087;-43
2022/12/12 11:26:23;;;;;;;20.63;11.70;;;;;;;3.97;77.34;95789.34;4943985;28;20102;-41
2022/12/12 11:28:54;;;;;;;17.42;11.15;;;;;;;3.69;77.83;95790.66;4949390;28;20074;-43
2022/12/12 11:31:27;;;;;;;18.60;11.90;;;;;;;4.06;77.25;95780.78;4948883;28;20539;-43
2022/12/12 11:33:57;;;;;;;19.88;12.68;;;;;;;4.26;77.40;95780.00;4951070;29;20090;-45
2022/12/12 11:36:28;;;;;;;;;;;;;;;4.13;74.65;95781.97;4944191;28;20083;-48
2022/12/12 11:38:58;;;;;;;19.15;12.95;;;;;;;4.41;73.33;95774.53;4948512;29;19961;-44
2022/12/12 11:41:26;;;;;;;17.42;10.75;;;;;;;4.40;72.15;95776.28;4950792;28;20570;-48
2022/12/12 11:43:59;;;;;;;15.82;10.20;;;;;;;3.47;72.12;95783.66;4940789;28;20083;-47
2022/12/12 11:46:30;;;;;;;18.42;11.15;;;;;;;4.14;73.53;95786.22;4943119;28;20523;-45
2022/12/12 11:49:00;;;;;;;17.15;10.73;;;;;;;4.24;71.13;95776.72;4951279;29;20129;-42
2022/12/12 11:51:34;;;;;;;18.92;11.50;;;;;;;4.00;70.02;95782.09;4956278;28;20066;-42